Hk Delight — 3FNE4 — position and weather

sailwx.info

Track history (hours):
 
Tides and Currents Weather Stations Pressure Air Temp Water Temp Dewpoint Dewpoint Depression Visibility Wind Speed Wind Dir Waves Ship Positions

Hk Delight

Last reported at 2018-Mar-31 19:41 UTC. Time now 2018-Jun-24 10:40 UTC.
Position N 41°37' E 141°30'.
Warning: this ship's position is months out of date.

Length 210 m; draft 11.4 m.

Type: Cargo ship. MMSI: 352452610.

Date/timePositionNaut miles runAvg speedWind from/ knotsBaromVisibWave heightAir tempDewpointWater temp
2018-Mar-31 19:41N 41°37' E 141°30'415.3
2018-Mar-31 19:24N 41°37' E 141°24'614.8
2018-Mar-31 19:00N 41°37' E 141°16'815.3
2018-Mar-31 18:30N 41°37' E 141°06'917.3
2018-Mar-31 18:00N 41°37' E 140°54'816.3
2018-Mar-31 17:30N 41°33' E 140°45'817.0
2018-Mar-31 17:00N 41°28' E 140°36'817.0
2018-Mar-31 16:30N 41°23' E 140°27'917.7
2018-Mar-31 16:00N 41°17' E 140°17'2715.4
2018-Mar-31 14:14N 40°54' E 139°58'314.8
2018-Mar-31 14:00N 40°51' E 139°56'1215.4
2018-Mar-31 13:15N 40°41' E 139°47'  
2018-Mar-23 17:00N 34°47' E 130°46'2213.4
2018-Mar-23 15:24N 34°33' E 130°26'612.5
2018-Mar-23 14:57N 34°30' E 130°21'512.0
2018-Mar-23 14:30N 34°26' E 130°16'611.9
2018-Mar-23 14:00N 34°22' E 130°10'611.9
2018-Mar-23 13:30N 34°19' E 130°05'611.9
2018-Mar-23 12:59N 34°14' E 129°59'611.8
2018-Mar-23 12:28N 34°10' E 129°54'611.6
2018-Mar-23 12:00N 34°06' E 129°50'611.5
2018-Mar-23 11:29N 34°03' E 129°44'611.5
2018-Mar-23 10:59N 33°59' E 129°38'611.8
2018-Mar-23 10:28N 33°56' E 129°32'  
Track history (hours):
 
Tides and Currents Weather Stations Pressure Air Temp Water Temp Dewpoint Dewpoint Depression Visibility Wind Speed Wind Dir Waves Ship Positions

Hk Delight

Last reported at 2018-Mar-31 19:41 UTC. Time now 2018-Jun-24 10:40 UTC.
Position N 41°37' E 141°30'.
Warning: this ship's position is months out of date.

Length 210 m; draft 11.4 m.

Type: Cargo ship. MMSI: 352452610.

Date/timePositionNaut miles runAvg speedWind from/ knotsBaromVisibWave heightAir tempDewpointWater temp
2018-Mar-31 19:41N 41°37' E 141°30'415.3
2018-Mar-31 19:24N 41°37' E 141°24'614.8
2018-Mar-31 19:00N 41°37' E 141°16'815.3
2018-Mar-31 18:30N 41°37' E 141°06'917.3
2018-Mar-31 18:00N 41°37' E 140°54'816.3
2018-Mar-31 17:30N 41°33' E 140°45'817.0
2018-Mar-31 17:00N 41°28' E 140°36'817.0
2018-Mar-31 16:30N 41°23' E 140°27'917.7
2018-Mar-31 16:00N 41°17' E 140°17'2715.4
2018-Mar-31 14:14N 40°54' E 139°58'314.8
2018-Mar-31 14:00N 40°51' E 139°56'1215.4
2018-Mar-31 13:15N 40°41' E 139°47'  
2018-Mar-23 17:00N 34°47' E 130°46'2213.4
2018-Mar-23 15:24N 34°33' E 130°26'612.5
2018-Mar-23 14:57N 34°30' E 130°21'512.0
2018-Mar-23 14:30N 34°26' E 130°16'611.9
2018-Mar-23 14:00N 34°22' E 130°10'611.9
2018-Mar-23 13:30N 34°19' E 130°05'611.9
2018-Mar-23 12:59N 34°14' E 129°59'611.8
2018-Mar-23 12:28N 34°10' E 129°54'611.6
2018-Mar-23 12:00N 34°06' E 129°50'611.5
2018-Mar-23 11:29N 34°03' E 129°44'611.5
2018-Mar-23 10:59N 33°59' E 129°38'611.8
2018-Mar-23 10:28N 33°56' E 129°32'  

Dump ship's entire track history